Flight Track Log - Related Links

Times and Time Zones

All times are in EST time to prevent confusion due to time zone crossing. See the N27XP flight status page for this flight to view local times or setup timezone preferences in your user account.

Time Position Orientation Groundspeed Altitude Reporting Facility
EST Latitude Longitude Course Direction KTS km/h feet Rate Location/Type
Fri 12:45:39 35.3467 -79.3939 31° Northeast 310 575 7.400  Level Washington Center
Fri 12:46:37 35.3856 -79.2811 67° East 311 576 9.600 2.319 Climbing Washington Center
Fri 12:47:38 35.4181 -79.1731 70° East 324 600 12.000 1.967 Climbing Washington Center
Fri 12:48:39 35.4786 -79.1017 44° Northeast 337 624 13.600 1.636 Climbing Washington Center
Fri 12:49:39 35.5658 -79.0469 27° Northeast 337 624 15.300 1.627 Climbing Washington Center
Fri 12:50:00 35.7535 -78.9400 31° Northeast  Level Estimated
Fri 12:50:37 35.6614 -78.9922 25° Northeast 349 647 16.800  Level Washington Center
Fri 12:51:39 35.7569 -78.9322 27° Northeast 370 686 18.100 1.426 Climbing Washington Center
Fri 12:52:39 35.8567 -78.8722 26° Northeast 382 708 19.700 1.627 Climbing Washington Center
Fri 12:53:37 35.9564 -78.8122 26° Northeast 390 723 21.300 1.563 Climbing Washington Center
Fri 12:54:38 36.0558 -78.7522 26° Northeast 390 723 22.800 1.488 Climbing Washington Center
Fri 12:55:38 36.1536 -78.6919 26° Northeast 390 723 24.300 1.488 Climbing Washington Center
Fri 12:56:39 36.2489 -78.6311 27° Northeast 385 713 25.800 1.311 Climbing Washington Center
Fri 12:57:37 36.3464 -78.5731 26° Northeast 385 713 26.900 1.109 Climbing Washington Center
Fri 12:58:38 36.4481 -78.5097 27° Northeast 390 723 28.000 1.033 Climbing Washington Center
Fri 12:59:39 36.5456 -78.4489 27° Northeast 390 723 29.000 992 Climbing Washington Center
Fri 13:00:39 36.6472 -78.3878 26° Northeast 390 723 30.000 1.068 Climbing Washington Center
Fri 13:01:37 36.7572 -78.3167 27° Northeast 390 723 31.100 1.059 Climbing Washington Center
Fri 13:02:38 36.8567 -78.2553 26° Northeast 390 723 32.100 836 Climbing Washington Center
Fri 13:03:39 36.9625 -78.1886 27° Northeast 401 742 32.800 446 Climbing Washington Center
Fri 13:04:39 37.0683 -78.1219 27° Northeast 410 760 33.000 102 Climbing Washington Center
Fri 13:05:37 37.1803 -78.0528 26° Northeast 421 779 33.000  Level Washington Center
Fri 13:06:39 37.2944 -77.9781 28° Northeast 437 810 33.000  Level Washington Center
Fri 13:07:38 37.4128 -77.9033 27° Northeast 453 838 33.000  Level Washington Center
Fri 13:08:38 37.5311 -77.8231 28° Northeast 466 863 33.000  Level Washington Center
Fri 13:09:39 37.6456 -77.7214 35° Northeast 488 904 33.000  Level Washington Center
Fri 13:10:37 37.7600 -77.6197 35° Northeast 493 912 33.000  Level Washington Center
Fri 13:11:39 37.8742 -77.5147 36° Northeast 505 935 33.000  Level Washington Center
Fri 13:12:39 37.9883 -77.4097 36° Northeast 505 935 33.000  Level Washington Center
Fri 13:13:39 38.0900 -77.3172 36° Northeast 505 935 33.000 -102 Level Washington Center
Fri 13:14:37 38.2039 -77.2142 35° Northeast 505 935 32.800 -655 Descending Washington Center
Fri 13:15:38 38.3158 -77.1108 36° Northeast 505 935 31.700 -1.131 Descending Washington Center
Fri 13:16:39 38.4381 -76.9967 36° Northeast 500 925 30.500 -1.109 Descending Washington Center
Fri 13:17:37 38.5497 -76.8925 36° Northeast 500 925 29.500 -1.008 Descending Washington Center
Fri 13:18:38 38.6636 -76.7881 36° Northeast 500 925 28.500 -984 Descending Washington Center
Fri 13:19:39 38.7708 -76.6700 41° Northeast 500 925 27.500 -992 Descending Washington Center
Fri 13:20:39 38.8761 -76.5489 42° Northeast 500 925 26.500 -1.017 Descending Washington Center
Fri 13:21:37 38.9792 -76.4275 42° Northeast 500 925 25.500 -1.059 Descending Washington Center
Fri 13:22:38 39.0842 -76.3083 41° Northeast 500 925 24.400 -738 Descending Washington Center
Fri 13:23:39 39.1869 -76.1886 42° Northeast 500 925 24.000 -202 Descending Washington Center
Fri 13:24:37 39.2897 -76.0742 41° Northeast 494 914 24.000 -151 Level Washington Center
Fri 13:25:38 39.3964 -75.9728 36° Northeast 481 892 23.700 -1.574 Descending Washington Center
Fri 13:26:39 39.5050 -75.8767 34° Northeast 476 882 20.800 -2.826 Descending Washington Center
Fri 13:28:13 39.6667 -75.7167 37° Northeast 450 834 16.400 -2.797 Descending Philadelphia TRACON
Fri 13:29:07 39.7667 -75.6333 33° Northeast 441 816 13.900 -1.907 Descending Philadelphia TRACON
Fri 13:30:00 39.8500 -75.5500 38° Northeast 428 793 13.000 -450 Descending Philadelphia TRACON
Fri 13:31:07 39.9500 -75.4500 37° Northeast 435 806 13.000  Level Philadelphia TRACON
Fri 13:32:07 40.0500 -75.3667 33° Northeast 442 819 13.000  Level Philadelphia TRACON
Fri 13:33:01 40.1333 -75.2833 37° Northeast 431 798 13.000 -1.344 Level Philadelphia TRACON
Fri 13:35:19 40.3500 -75.0833 35° Northeast 364 674 8.700 -1.848 Descending New York TRACON
Fri 13:36:19 40.4000 -75.0000 52° Northeast 319 591 6.900 -1.700 Descending New York TRACON
Fri 13:37:19 40.4667 -74.9167 44° Northeast 313 579 5.300 -1.450 Descending New York TRACON
Fri 13:38:19 40.5167 -74.8333 52° Northeast 306 566 4.000 -624 Descending New York TRACON
Fri 13:39:24 40.5833 -74.7333 49° Northeast 298 552 4.000  Level New York TRACON
Fri 13:40:25 40.6500 -74.6833 30° Northeast 293 542 4.000  Level New York TRACON
Fri 13:41:25 40.7167 -74.6167 37° Northeast 300 555 4.000 -192 Level New York TRACON
Fri 13:42:30 40.8000 -74.5333 37° Northeast 313 579 3.600 -480 Descending New York TRACON
Fri 13:43:30 40.8500 -74.4500 52° Northeast 311 576 3.000 -300 Descending New York TRACON
Fri 13:44:30 40.9000 -74.3667 52° Northeast 297 550 3.000  Level New York TRACON
Fri 13:45:25 40.9500 -74.2833 52° Northeast 294 544 3.000  Level New York TRACON
Fri 13:46:30 40.9833 -74.1833 66° East 266 492 3.000 -400 Level New York TRACON
Fri 13:47:25 40.9833 -74.1167 90° East 221 409 2.200 -574 Descending New York TRACON
Fri 13:48:25 40.9500 -74.0667 131° Southeast 196 364 1.900 -571 Descending New York TRACON
Fri 13:49:31 40.9000 -74.0500 166° South 146 270 1.000 -818 Descending New York TRACON

Login

Don't have an account? Register now (free) for customized features, flight alerts, and more!